Time;durP1;ratioP1;P1;durP2;ratioP2;P2;SDS_P1;SDS_P2;PMS_P1;PMS_P2;Temp;Humidity;BMP_temperature;BMP_pressure;BME280_temperature;BME280_humidity;BME280_pressure;Samples;Min_cycle;Max_cycle;Signal;HPM_P1;HPM_P2
2023/10/24 00:00:00;;;;;;;;;;;;;;;17.82;55.31;99635.44;5052389;28;20458;-76
2023/10/24 00:02:25;;;;;;;;;;;;;;;17.82;55.24;99636.25;5051705;28;19924;-78
2023/10/24 00:04:51;;;;;;;;;;;;;;;17.81;55.43;99628.44;5051551;28;20316;-76
2023/10/24 00:07:16;;;;;;;;;;;;;;;17.78;55.44;99630.53;5050352;28;19924;-77
2023/10/24 00:09:41;;;;;;;;;;;;;;;17.80;55.32;99624.97;5051354;28;19909;-77
2023/10/24 00:12:06;;;;;;;;;;;;;;;17.82;55.37;99622.88;5051551;28;19916;-77
2023/10/24 00:14:32;;;;;;;;;;;;;;;17.83;55.17;99627.19;5051826;28;19913;-77
2023/10/24 00:16:57;;;;;;;;;;;;;;;17.87;55.23;99630.25;5051717;28;19920;-77
2023/10/24 00:19:22;;;;;;;;;;;;;;;17.85;55.29;99624.34;5051554;28;20373;-77
2023/10/24 00:21:47;;;;;;;;;;;;;;;17.83;55.37;99627.19;5051659;28;19912;-76
2023/10/24 00:24:14;;;;;;;;;;;;;;;17.83;55.35;99623.72;5067066;28;19917;-77
2023/10/24 00:26:39;;;;;;;;;;;;;;;17.78;55.29;99625.19;5051698;28;20010;-78
2023/10/24 00:29:04;;;;;;;;;;;;;;;17.74;55.38;99616.00;5051722;28;19947;-76
2023/10/24 00:31:29;;;;;;;;;;;;;;;17.69;55.42;99618.50;5051771;28;20382;-78
2023/10/24 00:33:55;;;;;;;;;;;;;;;17.68;55.72;99622.22;5051637;28;19960;-77
2023/10/24 00:36:20;;;;;;;;;;;;;;;17.68;55.70;99616.88;5050375;28;19913;-78
2023/10/24 00:38:45;;;;;;;;;;;;;;;17.72;55.54;99620.75;5053409;28;20003;-77
2023/10/24 00:41:11;;;;;;;;;;;;;;;17.74;55.49;99612.50;5055229;28;19921;-77
2023/10/24 00:43:36;;;;;;;;;;;;;;;17.76;55.39;99600.56;5055257;28;19917;-77
2023/10/24 00:46:01;;;;;;;;;;;;;;;17.18;55.59;99512.06;5055279;28;20282;-77
2023/10/24 00:48:28;;;;;;;;;;;;;;;17.80;55.61;99611.63;5055357;28;19966;-76
2023/10/24 00:50:53;;;;;;;;;;;;;;;17.77;55.58;99601.38;5054907;28;20402;-77
2023/10/24 00:53:19;;;;;;;;;;;;;;;17.79;55.62;99601.97;5054728;28;19912;-77
2023/10/24 00:55:45;;;;;;;;;;;;;;;17.78;55.63;99592.31;5054517;28;19913;-77
2023/10/24 00:58:10;;;;;;;;;;;;;;;17.75;55.75;99598.94;5054727;28;19920;-78
2023/10/24 01:00:36;;;;;;;;;;;;;;;17.74;55.63;99591.97;5054852;28;19919;-77
2023/10/24 01:03:02;;;;;;;;;;;;;;;17.74;55.71;99591.97;5054716;28;19921;-77
2023/10/24 01:05:27;;;;;;;;;;;;;;;17.69;55.69;99594.47;5053311;28;19991;-76
2023/10/24 01:07:53;;;;;;;;;;;;;;;17.64;55.70;99596.16;5054942;28;19982;-76
2023/10/24 01:10:18;;;;;;;;;;;;;;;17.59;56.05;99594.16;5054579;28;19913;-76
2023/10/24 01:12:44;;;;;;;;;;;;;;;17.57;55.87;99593.56;5054568;28;19912;-77
2023/10/24 01:15:09;;;;;;;;;;;;;;;17.56;55.77;99599.94;5054461;28;19921;-78
2023/10/24 01:17:35;;;;;;;;;;;;;;;17.53;55.95;99597.72;5054273;28;19912;-78
2023/10/24 01:20:00;;;;;;;;;;;;;;;17.55;56.05;99597.50;5054547;28;19917;-77
2023/10/24 01:22:25;;;;;;;;;;;;;;;17.58;55.87;99595.19;5054327;28;20369;-75
2023/10/24 01:24:50;;;;;;;;;;;;;;;17.56;56.20;99599.94;5054238;28;19948;-77
2023/10/24 01:27:16;;;;;;;;;;;;;;;17.52;56.25;99597.94;5054196;28;20380;-77
2023/10/24 01:29:41;;;;;;;;;;;;;;;17.49;56.31;99609.88;5054277;28;20004;-76
2023/10/24 01:32:06;;;;;;;;;;;;;;;17.47;56.25;99603.94;5054386;28;19913;-77
2023/10/24 01:34:32;;;;;;;;;;;;;;;17.44;56.56;99604.38;5054324;28;20369;-77
2023/10/24 01:36:57;;;;;;;;;;;;;;;17.43;56.56;99600.91;5054273;28;19912;-76
2023/10/24 01:39:22;;;;;;;;;;;;;;;17.44;56.13;99602.53;5053986;28;20411;-77
2023/10/24 01:41:48;;;;;;;;;;;;;;;17.43;56.56;99598.22;5052677;28;19920;-76
2023/10/24 01:44:13;;;;;;;;;;;;;;;17.46;56.39;99604.97;5053904;28;19936;-77
2023/10/24 01:46:38;;;;;;;;;;;;;;;17.46;55.98;99600.44;5053948;28;19913;-77
2023/10/24 01:49:04;;;;;;;;;;;;;;;17.44;56.13;99599.03;5053835;28;19917;-77
2023/10/24 01:51:29;;;;;;;;;;;;;;;17.40;56.42;99600.53;5053807;28;19917;-77
2023/10/24 01:53:54;;;;;;;;;;;;;;;17.41;56.31;99608.31;5053640;28;19913;-77
2023/10/24 01:56:19;;;;;;;;;;;;;;;17.40;56.66;99600.53;5053365;28;20387;-76
2023/10/24 01:58:45;;;;;;;;;;;;;;;17.40;56.14;99604.00;5053695;28;19919;-77
2023/10/24 02:01:10;;;;;;;;;;;;;;;17.38;56.51;99602.59;5053816;28;20310;-77
2023/10/24 02:03:35;;;;;;;;;;;;;;;17.38;56.56;99602.59;5052060;28;19921;-77
2023/10/24 02:06:01;;;;;;;;;;;;;;;17.41;56.38;99605.63;5053102;28;20012;-77
2023/10/24 02:08:26;;;;;;;;;;;;;;;17.43;56.28;99614.25;5053432;28;19913;-77
2023/10/24 02:10:52;;;;;;;;;;;;;;;17.48;56.11;99614.41;5053408;28;19920;-76
2023/10/24 02:13:17;;;;;;;;;;;;;;;17.48;56.24;99619.72;5053283;28;19913;-76
2023/10/24 02:15:42;;;;;;;;;;;;;;;17.47;56.18;99612.75;5053298;28;19916;-77
2023/10/24 02:18:08;;;;;;;;;;;;;;;17.48;56.10;99621.59;5053238;28;19920;-77
2023/10/24 02:20:33;;;;;;;;;;;;;;;17.47;56.14;99611.94;5053412;28;19913;-76
2023/10/24 02:22:58;;;;;;;;;;;;;;;17.45;56.43;99614.84;5053179;28;20340;-76
2023/10/24 02:25:24;;;;;;;;;;;;;;;17.42;56.52;99619.81;5053289;28;19959;-77
2023/10/24 02:27:49;;;;;;;;;;;;;;;17.44;56.28;99620.41;5053368;28;20004;-76
2023/10/24 02:30:14;;;;;;;;;;;;;;;17.41;56.37;99621.66;5053084;28;19966;-77
2023/10/24 02:32:39;;;;;;;;;;;;;;;17.40;56.26;99616.53;5053179;28;19994;-77
2023/10/24 02:35:05;;;;;;;;;;;;;;;17.39;56.56;99617.56;5053084;28;19975;-77
2023/10/24 02:37:30;;;;;;;;;;;;;;;17.36;56.49;99618.81;5051690;28;19920;-76
2023/10/24 02:39:55;;;;;;;;;;;;;;;17.36;56.71;99626.00;5053028;28;19950;-77
2023/10/24 02:42:20;;;;;;;;;;;;;;;17.32;56.95;99630.16;5052915;28;19924;-78
2023/10/24 02:44:49;;;;;;;;;;;;;;;17.27;56.62;99622.81;5053066;28;19965;-77
2023/10/24 02:47:14;;;;;;;;;;;;;;;17.27;56.92;99625.47;5053377;28;19913;-75
2023/10/24 02:49:40;;;;;;;;;;;;;;;17.23;57.25;99626.97;5052949;28;19970;-74
2023/10/24 02:52:05;;;;;;;;;;;;;;;17.22;56.87;99629.84;5052460;28;20309;-77
2023/10/24 02:54:30;;;;;;;;;;;;;;;17.23;57.13;99628.81;5052372;28;19912;-75
2023/10/24 02:56:55;;;;;;;;;;;;;;;17.17;57.46;99629.69;5052403;28;20399;-77
2023/10/24 02:59:21;;;;;;;;;;;;;;;17.13;57.12;99631.97;5052293;28;19917;-77
2023/10/24 03:01:46;;;;;;;;;;;;;;;17.13;57.50;99639.97;5051953;28;20308;-77
2023/10/24 03:04:11;;;;;;;;;;;;;;;17.14;56.84;99641.59;5052244;28;20387;-76
2023/10/24 03:06:36;;;;;;;;;;;;;;;17.10;57.79;99638.56;5052422;28;20403;-76
2023/10/24 03:09:02;;;;;;;;;;;;;;;17.12;57.57;99643.69;5052474;28;19913;-76
2023/10/24 03:11:28;;;;;;;;;;;;;;;17.14;57.54;99638.94;5052420;28;20420;-77
2023/10/24 03:13:53;;;;;;;;;;;;;;;17.12;57.76;99647.16;5051099;28;20359;-77
2023/10/24 03:16:18;;;;;;;;;;;;;;;17.07;57.75;99644.31;5052247;28;19971;-74
2023/10/24 03:18:44;;;;;;;;;;;;;;;17.05;57.74;99642.88;5052124;28;20455;-77
2023/10/24 03:21:09;;;;;;;;;;;;;;;17.04;57.88;99638.59;5052169;28;19917;-76
2023/10/24 03:23:34;;;;;;;;;;;;;;;17.03;58.36;99648.44;5050771;28;19947;-76
2023/10/24 03:26:03;;;;;;;;;;;;;;;17.06;57.67;99640.00;5050810;28;19912;-77
2023/10/24 03:28:28;;;;;;;;;;;;;;;17.08;57.91;99655.78;5052002;28;20008;-76
2023/10/24 03:31:04;;;;;;;;;;;;;;;17.07;57.94;99646.97;5051896;28;20418;-75
2023/10/24 03:33:32;;;;;;;;;;;;;;;17.06;58.02;99642.66;5052135;28;19920;-77
2023/10/24 03:35:58;;;;;;;;;;;;;;;17.07;57.70;99643.47;5051847;28;19913;-77
2023/10/24 03:38:24;;;;;;;;;;;;;;;17.08;57.65;99643.25;5051954;28;20282;-75
2023/10/24 03:40:49;;;;;;;;;;;;;;;17.07;57.66;99635.47;5052231;28;19912;-75
2023/10/24 03:43:14;;;;;;;;;;;;;;;17.08;57.42;99637.94;5052512;28;19917;-75
2023/10/24 03:45:40;;;;;;;;;;;;;;;17.08;58.11;99637.13;5053507;28;19920;-76
2023/10/24 03:48:05;;;;;;;;;;;;;;;17.05;57.38;99634.88;5054244;28;19920;-78
2023/10/24 03:50:34;;;;;;;;;;;;;;;17.01;57.64;99639.03;5051681;28;19964;-77
2023/10/24 03:52:59;;;;;;;;;;;;;;;16.98;57.59;99628.78;5051745;28;19920;-77
2023/10/24 03:55:25;;;;;;;;;;;;;;;16.99;57.44;99633.09;5050387;28;19917;-77
2023/10/24 03:57:50;;;;;;;;;;;;;;;16.96;57.45;99634.34;5051543;28;19974;-77
2023/10/24 04:00:15;;;;;;;;;;;;;;;16.90;57.52;99639.72;5051528;28;19913;-77
2023/10/24 04:02:41;;;;;;;;;;;;;;;16.89;57.41;99640.75;5051435;28;19952;-77
2023/10/24 04:05:09;;;;;;;;;;;;;;;16.82;57.50;99644.28;5051401;28;19930;-77
2023/10/24 04:07:35;;;;;;;;;;;;;;;16.77;57.57;99645.97;5051526;28;19912;-77
2023/10/24 04:10:00;;;;;;;;;;;;;;;16.74;57.63;99655.22;5051592;28;19912;-77
2023/10/24 04:12:25;;;;;;;;;;;;;;;16.69;57.87;99652.38;5051396;28;19913;-78
2023/10/24 04:14:50;;;;;;;;;;;;;;;16.63;57.77;99649.72;5055359;28;20381;-78
2023/10/24 04:17:16;;;;;;;;;;;;;;;16.59;57.73;99652.00;5055413;28;19912;-76
2023/10/24 04:19:41;;;;;;;;;;;;;;;16.54;57.80;99654.50;5055280;28;19970;-77
2023/10/24 04:22:06;;;;;;;;;;;;;;;16.48;58.18;99658.00;5055196;28;19905;-77
2023/10/24 04:24:31;;;;;;;;;;;;;;;16.44;57.83;99657.63;5055426;28;20058;-77
2023/10/24 04:26:57;;;;;;;;;;;;;;;16.42;58.24;99657.00;5054203;28;20301;-77
2023/10/24 04:29:22;;;;;;;;;;;;;;;16.40;57.92;99655.59;5055528;28;20050;-77
2023/10/24 04:31:48;;;;;;;;;;;;;;;16.41;58.21;99662.56;5055182;28;19920;-75
2023/10/24 04:34:13;;;;;;;;;;;;;;;16.43;57.94;99660.50;5055180;28;19920;-77
2023/10/24 04:36:39;;;;;;;;;;;;;;;16.44;58.35;99660.28;5055307;28;19913;-77
2023/10/24 04:39:04;;;;;;;;;;;;;;;16.43;57.97;99657.84;5055221;28;19916;-77
2023/10/24 04:41:29;;;;;;;;;;;;;;;16.45;57.75;99669.09;5055149;28;19913;-76
2023/10/24 04:43:55;;;;;;;;;;;;;;;16.41;58.04;99668.72;5055036;28;19924;-76
2023/10/24 04:46:20;;;;;;;;;;;;;;;16.39;58.04;99677.94;5055124;28;20018;-77
2023/10/24 04:48:45;;;;;;;;;;;;;;;16.34;57.99;99675.06;5054987;28;20389;-78
2023/10/24 04:51:11;;;;;;;;;;;;;;;16.29;58.18;99677.53;5056675;28;19912;-76
2023/10/24 04:53:36;;;;;;;;;;;;;;;16.29;58.08;99689.03;5054981;28;19916;-77
2023/10/24 04:56:02;;;;;;;;;;;;;;;16.32;58.06;99688.59;5054768;28;19917;-78
2023/10/24 04:58:28;;;;;;;;;;;;;;;16.33;58.20;99682.25;5055229;28;19972;-77
2023/10/24 05:00:53;;;;;;;;;;;;;;;16.30;58.17;99692.50;5054839;28;19913;-78
2023/10/24 05:03:18;;;;;;;;;;;;;;;16.32;58.05;99701.91;5054954;28;20290;-77
2023/10/24 05:05:43;;;;;;;;;;;;;;;16.29;58.12;99705.00;5054545;28;19921;-78
2023/10/24 05:08:10;;;;;;;;;;;;;;;16.23;58.31;99710.38;5054601;28;20444;-78
2023/10/24 05:10:35;;;;;;;;;;;;;;;16.21;58.19;99715.91;5054671;28;19913;-77
2023/10/24 05:13:01;;;;;;;;;;;;;;;16.21;58.20;99710.56;5054466;28;20360;-78
2023/10/24 05:15:26;;;;;;;;;;;;;;;16.25;58.21;99718.97;5054264;28;19913;-77
2023/10/24 05:17:51;;;;;;;;;;;;;;;16.28;58.11;99722.03;5054179;28;20420;-78
2023/10/24 05:20:17;;;;;;;;;;;;;;;16.25;58.23;99722.44;5054103;28;19920;-77
2023/10/24 05:22:42;;;;;;;;;;;;;;;16.24;58.05;99731.47;5054099;28;19974;-77
2023/10/24 05:25:07;;;;;;;;;;;;;;;16.19;58.20;99737.44;5054155;28;19913;-77
2023/10/24 05:27:33;;;;;;;;;;;;;;;16.16;58.16;99745.00;5054434;28;19988;-77
2023/10/24 05:29:58;;;;;;;;;;;;;;;16.20;58.39;99744.38;5054410;28;19912;-77
2023/10/24 05:32:23;;;;;;;;;;;;;;;16.23;58.18;99750.31;5054479;28;19995;-78
2023/10/24 05:34:49;;;;;;;;;;;;;;;16.30;57.93;99749.28;5054246;28;20011;-77
2023/10/24 05:37:14;;;;;;;;;;;;;;;16.35;57.89;99753.97;5052922;28;19913;-77
2023/10/24 05:39:39;;;;;;;;;;;;;;;16.38;57.97;99758.91;5052637;28;19912;-76
2023/10/24 05:42:04;;;;;;;;;;;;;;;16.38;58.00;99767.72;5053669;28;19912;-76
2023/10/24 05:44:30;;;;;;;;;;;;;;;16.43;57.91;99764.44;5054084;28;19986;-77
2023/10/24 05:46:55;;;;;;;;;;;;;;;16.45;58.04;99768.53;5053882;28;19913;-77
2023/10/24 05:49:20;;;;;;;;;;;;;;;16.48;57.78;99768.09;5053819;28;20396;-77
2023/10/24 05:51:45;;;;;;;;;;;;;;;16.45;57.91;99776.53;5053694;28;19912;-76
2023/10/24 05:54:11;;;;;;;;;;;;;;;16.45;58.02;99768.53;5053558;28;19928;-77
2023/10/24 05:56:36;;;;;;;;;;;;;;;16.49;58.10;99771.59;5046981;28;19956;-77
2023/10/24 05:59:01;;;;;;;;;;;;;;;16.57;58.00;99778.53;5049304;28;20305;-76
2023/10/24 06:01:26;;;;;;;;;;;;;;;16.66;57.63;99780.78;5044569;28;19931;-76
2023/10/24 06:03:52;;;;;;;;;;;;;;;16.73;57.44;99780.75;5032323;28;20016;-77
2023/10/24 06:06:17;;;;;;;;;;;;;;;16.74;57.64;99783.19;5046850;28;19928;-77
2023/10/24 06:08:43;;;;;;;;;;;;;;;16.78;57.77;99784.41;5048473;28;20027;-77
2023/10/24 06:11:08;;;;;;;;;;;;;;;16.86;57.64;99787.88;5041003;28;20378;-76
2023/10/24 06:13:34;;;;;;;;;;;;;;;16.90;57.60;99789.06;5045277;28;19923;-76
2023/10/24 06:16:09;;;;;;;;;;;;;;;16.94;57.93;99785.75;5049324;28;19913;-76
2023/10/24 06:18:34;;;;;;;;;;;;;;;17.01;57.68;99791.06;5050188;28;20318;-77
2023/10/24 06:21:03;;;;;;;;;;;;;;;17.10;57.46;99789.81;5048183;28;19982;-76
2023/10/24 06:23:28;;;;;;;;;;;;;;;17.13;57.63;99790.19;5050022;28;20313;-76
2023/10/24 06:25:55;;;;;;;;;;;;;;;17.19;57.50;99796.53;5042899;28;19921;-76
2023/10/24 06:28:21;;;;;;;;;;;;;;;17.29;57.42;99802.22;5041052;28;20420;-75
2023/10/24 06:30:46;;;;;;;;;;;;;;;17.38;57.18;99802.78;5045909;28;19956;-75
2023/10/24 06:33:11;;;;;;;;;;;;;;;17.43;57.13;99801.09;5040383;28;20428;-77
2023/10/24 06:35:36;;;;;;;;;;;;;;;17.53;57.06;99802.47;5037778;28;19973;-78
2023/10/24 06:38:02;;;;;;;;;;;;;;;17.57;57.04;99791.13;5047426;28;19924;-77
2023/10/24 06:40:27;;;;;;;;;;;;;;;17.65;56.92;99793.53;5045598;28;20387;-75
2023/10/24 06:42:52;;;;;;;;;;;;;;;17.73;56.83;99789.78;5044720;28;19924;-76
2023/10/24 06:45:17;;;;;;;;;;;;;;;17.79;56.66;99787.06;5050159;28;19927;-77
2023/10/24 06:47:43;;;;;;;;;;;;;;;17.87;56.72;99790.53;5050351;28;20371;-77
2023/10/24 06:50:08;;;;;;;;;;;;;;;17.93;56.67;99789.66;5047032;28;19917;-77
2023/10/24 06:52:34;;;;;;;;;;;;;;;17.99;56.47;99786.09;5035867;28;19917;-78
2023/10/24 06:54:59;;;;;;;;;;;;;;;18.07;56.42;99789.31;5050413;28;20448;-75
2023/10/24 06:57:25;;;;;;;;;;;;;;;18.15;56.46;99790.88;5050519;28;20340;-77
2023/10/24 06:59:50;;;;;;;;;;;;;;;18.20;56.20;99796.38;5049352;28;19920;-77
2023/10/24 07:02:16;;;;;;;;;;;;;;;18.28;56.30;99792.59;5036453;28;20385;-77
2023/10/24 07:04:42;;;;;;;;;;;;;;;18.35;56.19;99788.00;5032874;28;19975;-76
2023/10/24 07:07:07;;;;;;;;;;;;;;;18.41;56.38;99790.59;5039311;28;20309;-77
2023/10/24 07:09:32;;;;;;;;;;;;;;;18.48;56.42;99793.19;5051484;28;19916;-77
2023/10/24 07:11:57;;;;;;;;;;;;;;;18.55;56.25;99785.09;5048287;28;20368;-77
2023/10/24 07:14:23;;;;;;;;;;;;;;;18.63;55.91;99787.53;5043496;28;20393;-77
2023/10/24 07:16:50;;;;;;;;;;;;;;;18.71;55.70;99789.88;5049138;28;19921;-77
2023/10/24 07:19:15;;;;;;;;;;;;;;;18.79;55.89;99784.22;5050691;28;19982;-77
2023/10/24 07:21:40;;;;;;;;;;;;;;;18.88;55.51;99782.06;5055963;28;19916;-76
2023/10/24 07:24:05;;;;;;;;;;;;;;;18.96;55.41;99779.06;5054432;28;19921;-78
2023/10/24 07:26:31;;;;;;;;;;;;;;;19.03;55.03;99767.22;5050490;28;20313;-78
2023/10/24 07:28:56;;;;;;;;;;;;;;;19.13;55.00;99773.88;5047694;28;20388;-78
2023/10/24 07:31:21;;;;;;;;;;;;;;;19.20;54.92;99774.59;5046539;28;19983;-77
2023/10/24 07:33:47;;;;;;;;;;;;;;;19.26;54.69;99769.16;5049327;28;20004;-78
2023/10/24 07:36:12;;;;;;;;;;;;;;;19.35;54.44;99758.97;5048800;28;19921;-76
2023/10/24 07:38:38;;;;;;;;;;;;;;;19.45;54.37;99766.44;5046960;28;19916;-77
2023/10/24 07:41:04;;;;;;;;;;;;;;;19.53;54.07;99769.63;5046654;28;19956;-77
2023/10/24 07:43:29;;;;;;;;;;;;;;;19.61;53.79;99758.56;5033942;28;19963;-77
2023/10/24 07:45:54;;;;;;;;;;;;;;;19.69;53.72;99762.75;5038128;28;20300;-77
2023/10/24 07:48:20;;;;;;;;;;;;;;;19.77;53.79;99762.41;5038112;28;19917;-77
2023/10/24 07:50:52;;;;;;;;;;;;;;;19.86;53.43;99758.34;5044741;28;19916;-76
2023/10/24 07:53:18;;;;;;;;;;;;;;;19.95;53.47;99756.13;5038777;28;19921;-75
2023/10/24 07:55:43;;;;;;;;;;;;;;;20.03;53.05;99758.44;5038844;28;20055;-77
2023/10/24 07:58:09;;;;;;;;;;;;;;;20.12;53.18;99757.06;5046340;28;20379;-75
2023/10/24 08:00:34;;;;;;;;;;;;;;;20.20;52.95;99745.16;5047722;28;19921;-76
2023/10/24 08:02:59;;;;;;;;;;;;;;;20.26;52.97;99749.59;5041086;28;20413;-75
2023/10/24 08:05:25;;;;;;;;;;;;;;;20.35;52.67;99750.84;5047962;28;19931;-77
2023/10/24 08:07:50;;;;;;;;;;;;;;;20.42;52.47;99740.84;5040540;28;20322;-78
2023/10/24 08:10:16;;;;;;;;;;;;;;;20.49;52.19;99744.19;5043017;28;19966;-76
2023/10/24 08:12:41;;;;;;;;;;;;;;;20.59;51.80;99735.53;5040746;28;19917;-75
2023/10/24 08:15:07;;;;;;;;;;;;;;;20.69;51.77;99738.41;5041212;28;19916;-77
2023/10/24 08:17:32;;;;;;;;;;;;;;;20.79;51.56;99738.59;5050964;28;19916;-78
2023/10/24 08:19:57;;;;;;;;;;;;;;;20.87;51.49;99735.56;5047616;28;20397;-78
2023/10/24 08:22:22;;;;;;;;;;;;;;;20.93;49.78;99731.91;5044817;28;20011;-76
2023/10/24 08:24:48;;;;;;;;;;;;;;;21.05;50.63;99723.00;5050553;28;20371;-74
2023/10/24 08:27:14;;;;;;;;;;;;;;;21.10;50.17;99726.56;5043914;28;20008;-78
2023/10/24 08:29:39;;;;;;;;;;;;;;;21.20;50.03;99713.31;5044314;28;20406;-77
2023/10/24 08:32:04;;;;;;;;;;;;;;;21.30;50.02;99717.25;5043196;28;19917;-77
2023/10/24 08:34:30;;;;;;;;;;;;;;;21.38;49.87;99717.69;5042797;28;20369;-78
2023/10/24 08:36:55;;;;;;;;;;;;;;;21.47;49.94;99712.72;5034689;28;19993;-77
2023/10/24 08:39:23;;;;;;;;;;;;;;;21.56;49.79;99711.25;5035998;28;19917;-78
2023/10/24 08:41:51;;;;;;;;;;;;;;;21.64;49.51;99707.34;5050055;28;20003;-77
2023/10/24 08:44:17;;;;;;;;;;;;;;;21.73;49.46;99708.56;5049554;28;20334;-76
2023/10/24 08:46:43;;;;;;;;;;;;;;;21.81;49.25;99705.44;5048564;28;20393;-77
2023/10/24 08:49:09;;;;;;;;;;;;;;;21.90;48.91;99706.66;5036773;28;20004;-76
2023/10/24 08:51:35;;;;;;;;;;;;;;;21.97;48.45;99703.78;5049492;28;19951;-76
2023/10/24 08:54:00;;;;;;;;;;;;;;;22.05;49.64;99703.38;5042332;28;19956;-78
2023/10/24 08:56:26;;;;;;;;;;;;;;;22.10;48.43;99700.75;5038312;28;19924;-76
2023/10/24 08:58:52;;;;;;;;;;;;;;;22.15;48.60;99696.25;5039954;28;19921;-77
2023/10/24 09:01:18;;;;;;;;;;;;;;;22.23;48.50;99689.63;5042997;28;19928;-77
2023/10/24 09:03:44;;;;;;;;;;;;;;;22.29;48.17;99687.81;5045888;28;20012;-77
2023/10/24 09:06:09;;;;;;;;;;;;;;;22.35;48.15;99687.66;5052307;28;19921;-78
2023/10/24 09:08:35;;;;;;;;;;;;;;;22.41;48.23;99683.94;5044450;28;20290;-77
2023/10/24 09:11:00;;;;;;;;;;;;;;;22.45;46.46;99681.56;5051337;28;19916;-78
2023/10/24 09:13:26;;;;;;;;;;;;;;;22.48;45.99;99676.50;5049119;28;19928;-76
2023/10/24 09:16:08;;;;;;;;;;;;;;;22.56;47.27;99674.41;5052913;28;19917;-77
2023/10/24 09:18:34;;;;;;;;;;;;;;;22.63;47.32;99673.16;5046505;28;19917;-77
2023/10/24 09:20:59;;;;;;;;;;;;;;;22.69;47.15;99672.13;5050285;28;19924;-76
2023/10/24 09:23:24;;;;;;;;;;;;;;;22.77;47.52;99674.38;5048617;28;20394;-76
2023/10/24 09:25:49;;;;;;;;;;;;;;;22.87;47.32;99680.94;5052728;28;19925;-76
2023/10/24 09:28:19;;;;;;;;;;;;;;;22.94;47.65;99673.47;5053193;28;19920;-76
2023/10/24 09:30:44;;;;;;;;;;;;;;;22.99;47.02;99668.94;5053506;28;19952;-77
2023/10/24 09:33:10;;;;;;;;;;;;;;;23.06;46.85;99666.06;5051107;28;19963;-78
2023/10/24 09:35:36;;;;;;;;;;;;;;;23.12;46.51;99670.44;5052698;28;19917;-76
2023/10/24 09:38:02;;;;;;;;;;;;;;;23.19;47.44;99665.63;5044473;28;19939;-77
2023/10/24 09:40:34;;;;;;;;;;;;;;;23.29;46.82;99659.50;5049593;28;19923;-76
2023/10/24 09:43:02;;;;;;;;;;;;;;;23.38;47.50;99652.56;5048518;28;20016;-78
2023/10/24 09:45:28;;;;;;;;;;;;;;;23.42;45.41;99651.78;5052880;28;19920;-77
2023/10/24 09:47:55;;;;;;;;;;;;;;;23.47;45.00;99642.94;5052694;28;20377;-76
2023/10/24 09:50:20;;;;;;;;;;;;;;;23.54;45.00;99642.69;5051551;28;19917;-77
2023/10/24 09:52:46;;;;;;;;;;;;;;;23.60;45.29;99639.00;5053743;28;19920;-78
2023/10/24 09:55:12;;;;;;;;;;;;;;;23.66;45.83;99636.06;5065588;28;19924;-78
2023/10/24 09:57:38;;;;;;;;;;;;;;;23.74;44.55;99627.47;5070912;28;19973;-78
2023/10/24 10:00:04;;;;;;;;;;;;;;;23.83;44.50;99621.63;5068948;28;19916;-78
2023/10/24 10:02:29;;;;;;;;;;;;;;;23.90;44.40;99616.78;5074421;28;20066;-78
2023/10/24 10:04:55;;;;;;;;;;;;;;;23.99;45.62;99620.59;5065734;28;19921;-75
2023/10/24 10:07:20;;;;;;;;;;;;;;;24.06;46.01;99611.19;5066647;28;19916;-76
2023/10/24 10:09:47;;;;;;;;;;;;;;;24.13;44.37;99610.94;5069311;28;19999;-77
2023/10/24 10:12:14;;;;;;;;;;;;;;;24.21;44.61;99609.63;5072423;28;19923;-77
2023/10/24 10:14:51;;;;;;;;;;;;;;;24.28;43.62;99599.41;5067523;28;19920;-76
2023/10/24 10:17:26;;;;;;;;;;;;;;;24.36;45.01;99605.09;5057108;28;19920;-77
2023/10/24 10:20:08;;;;;;;;;;;;;;;24.44;43.96;99598.38;5062276;28;19917;-77
2023/10/24 10:22:39;;;;;;;;;;;;;;;24.52;43.90;99587.03;5068604;28;19928;-77
2023/10/24 10:25:22;;;;;;;;;;;;;;;24.58;42.33;99583.28;5073375;28;19920;-76
2023/10/24 10:27:51;;;;;;;;;;;;;;;24.65;42.53;99583.84;5072743;28;20025;-77
2023/10/24 10:30:36;;;;;;;;;;;;;;;24.69;42.96;99576.81;5070456;28;19923;-76
2023/10/24 10:33:13;;;;;;;;;;;;;;;24.78;43.35;99571.69;5046797;28;19985;-76
2023/10/24 10:35:58;;;;;;;;;;;;;;;24.85;43.68;99566.81;5059212;28;19917;-77
2023/10/24 10:38:43;;;;;;;;;;;;;;;24.92;42.18;99558.44;5069375;28;19999;-77
2023/10/24 10:41:32;;;;;;;;;;;;;;;24.98;43.25;99560.09;5063775;28;19928;-77
2023/10/24 10:44:01;;;;;;;;;;;;;;;25.03;44.04;99557.38;5048740;28;21242;-77
2023/10/24 10:46:30;;;;;;;;;;;;;;;25.09;43.83;99569.00;5069465;28;19916;-77
2023/10/24 10:48:59;;;;;;;;;;;;;;;25.12;43.58;99557.63;5061011;28;19959;-76
2023/10/24 10:51:34;;;;;;;;;;;;;;;25.15;42.75;99557.09;5065916;28;20313;-75
2023/10/24 10:54:22;;;;;;;;;;;;;;;25.17;42.69;99550.34;5068471;28;20364;-76
2023/10/24 10:56:48;;;;;;;;;;;;;;;25.20;43.20;99554.38;5060169;28;19955;-77
2023/10/24 10:59:22;;;;;;;;;;;;;;;25.21;42.85;99550.59;5065919;28;20321;-76
2023/10/24 11:01:59;;;;;;;;;;;;;;;25.21;43.24;99540.59;5052502;28;19940;-75
2023/10/24 11:04:24;;;;;;;;;;;;;;;25.22;43.11;99544.09;5069443;28;19920;-77
2023/10/24 11:06:54;;;;;;;;;;;;;;;25.20;42.10;99541.69;5073454;28;19974;-77
2023/10/24 11:09:22;;;;;;;;;;;;;;;25.22;42.39;99544.09;5071388;28;19912;-76
2023/10/24 11:12:06;;;;;;;;;;;;;;;25.22;42.81;99536.00;5072052;28;19974;-75
2023/10/24 11:14:32;;;;;;;;;;;;;;;25.21;42.03;99529.78;5071412;28;20315;-76
2023/10/24 11:16:57;;;;;;;;;;;;;;;25.21;43.42;99529.78;5068755;28;19935;-77
2023/10/24 11:19:24;;;;;;;;;;;;;;;25.19;43.00;99515.75;5069908;28;19913;-76
2023/10/24 11:21:51;;;;;;;;;;;;;;;25.19;42.19;99514.94;5063295;28;19916;-77
2023/10/24 11:24:22;;;;;;;;;;;;;;;25.16;42.75;99510.88;5066270;28;19917;-76
2023/10/24 11:26:48;;;;;;;;;;;;;;;25.14;41.93;99518.44;5055206;28;20407;-76
2023/10/24 11:29:14;;;;;;;;;;;;;;;25.12;42.27;99520.63;5063620;28;20380;-77
2023/10/24 11:31:42;;;;;;;;;;;;;;;25.12;42.64;99512.50;5062003;28;19916;-76
2023/10/24 11:34:10;;;;;;;;;;;;;;;25.08;42.99;99508.75;5061143;28;20881;-77
2023/10/24 11:36:35;;;;;;;;;;;;;;;25.07;43.56;99506.31;5068141;28;19916;-76
2023/10/24 11:39:04;;;;;;;;;;;;;;;25.03;42.50;99500.66;5069238;28;19919;-76
2023/10/24 11:41:29;;;;;;;;;;;;;;;25.03;43.02;99506.06;5070354;28;19916;-76
2023/10/24 11:43:54;;;;;;;;;;;;;;;25.02;43.93;99496.34;5070079;28;20004;-76
2023/10/24 11:46:19;;;;;;;;;;;;;;;25.00;43.38;99502.00;5070768;28;19916;-76
2023/10/24 11:48:45;;;;;;;;;;;;;;;25.00;43.60;99501.19;5067128;28;20390;-76
2023/10/24 11:51:10;;;;;;;;;;;;;;;24.96;43.26;99500.91;5061425;28;20003;-74
2023/10/24 11:53:36;;;;;;;;;;;;;;;24.95;43.22;99490.38;5069853;28;19951;-77
2023/10/24 11:56:01;;;;;;;;;;;;;;;24.92;43.46;99489.03;5069176;28;19913;-76
2023/10/24 11:58:30;;;;;;;;;;;;;;;24.91;43.75;99489.31;5070353;28;20397;-76
2023/10/24 12:00:58;;;;;;;;;;;;;;;24.90;43.07;99488.50;5061856;28;19960;-77
2023/10/24 12:03:24;;;;;;;;;;;;;;;24.93;43.63;99485.25;5070009;28;19924;-75
2023/10/24 12:05:52;;;;;;;;;;;;;;;24.94;43.74;99484.16;5070826;28;19920;-75
2023/10/24 12:08:21;;;;;;;;;;;;;;;24.96;43.24;99481.19;5070289;28;20016;-77
2023/10/24 12:10:52;;;;;;;;;;;;;;;24.95;41.71;99477.69;5072181;28;19904;-76
2023/10/24 12:13:17;;;;;;;;;;;;;;;24.96;42.34;99473.91;5072277;28;19912;-76
2023/10/24 12:15:42;;;;;;;;;;;;;;;24.96;42.95;99467.69;5071545;28;20424;-77
2023/10/24 12:18:08;;;;;;;;;;;;;;;24.94;42.96;99462.56;5071699;28;19961;-77
2023/10/24 12:20:33;;;;;;;;;;;;;;;24.94;43.67;99467.94;5072493;28;19923;-76
2023/10/24 12:22:58;;;;;;;;;;;;;;;24.92;43.73;99464.72;5074322;28;20372;-76
2023/10/24 12:25:24;;;;;;;;;;;;;;;24.92;43.82;99463.91;5064162;28;19916;-79
2023/10/24 12:27:49;;;;;;;;;;;;;;;24.91;43.85;99457.69;5054036;28;19917;-77
2023/10/24 12:30:14;;;;;;;;;;;;;;;24.92;43.74;99466.63;5070452;28;19917;-77
2023/10/24 12:32:41;;;;;;;;;;;;;;;24.93;42.88;99465.53;5070182;28;19931;-77
2023/10/24 12:35:06;;;;;;;;;;;;;;;24.94;42.53;99456.34;5074018;28;19995;-74
2023/10/24 12:37:33;;;;;;;;;;;;;;;24.97;42.76;99450.41;5073559;28;19956;-75
2023/10/24 12:39:59;;;;;;;;;;;;;;;25.00;42.40;99447.16;5075415;28;19912;-76
2023/10/24 12:42:24;;;;;;;;;;;;;;;25.02;42.59;99443.13;5069365;28;19922;-77